Time;durP1;ratioP1;P1;durP2;ratioP2;P2;SDS_P1;SDS_P2;PMS_P1;PMS_P2;Temp;Humidity;BMP_temperature;BMP_pressure;BME280_temperature;BME280_humidity;BME280_pressure;Samples;Min_cycle;Max_cycle;Signal;HPM_P1;HPM_P2
2022/06/18 00:01:49;;;;;;;10.65;2.25;;;;;;;14.67;53.11;101055.16;5063874;28;20060;-83
2022/06/18 00:04:19;;;;;;;10.35;1.98;;;;;;;14.57;53.39;101071.41;5069399;28;20053;-82
2022/06/18 00:06:49;;;;;;;9.70;1.67;;;;;;;14.95;52.19;101060.75;5059345;28;20059;-82
2022/06/18 00:09:21;;;;;;;9.05;1.77;;;;;;;14.43;54.12;101071.22;5056796;28;20051;-82
2022/06/18 00:14:36;;;;;;;9.55;2.13;;;;;;;14.05;55.50;101074.72;5053668;28;20475;-82
2022/06/18 00:17:16;;;;;;;10.63;2.00;;;;;;;14.01;55.39;101065.28;5053937;28;20376;-82
2022/06/18 00:19:44;;;;;;;11.00;2.28;;;;;;;14.08;55.19;101049.19;5072302;28;20052;-82
2022/06/18 00:22:13;;;;;;;13.25;2.40;;;;;;;14.26;55.06;101073.81;5055079;28;20067;-82
2022/06/18 00:24:41;;;;;;;6.97;1.60;;;;;;;14.07;55.31;101060.66;5056731;28;20375;-82
2022/06/18 00:27:10;;;;;;;8.10;1.63;;;;;;;14.08;55.33;101054.44;5058835;28;20674;-82
2022/06/18 00:29:37;;;;;;;8.88;2.00;;;;;;;13.82;56.45;101067.06;5053256;28;20041;-82
2022/06/18 00:32:05;;;;;;;14.18;2.55;;;;;;;13.59;56.60;101071.56;5053665;28;20052;-82
2022/06/18 00:34:32;;;;;;;11.55;2.10;;;;;;;13.61;56.23;101032.88;5057754;28;20398;-82
2022/06/18 00:36:59;;;;;;;16.50;2.53;;;;;;;13.93;55.92;101075.28;5054062;28;20056;-81
2022/06/18 00:39:28;;;;;;;8.38;1.75;;;;;;;14.18;55.93;101080.28;5053278;28;20053;-82
2022/06/18 00:41:58;;;;;;;10.60;2.00;;;;;;;14.04;56.83;101075.66;5044400;28;20062;-81
2022/06/18 00:44:33;;;;;;;8.30;1.60;;;;;;;14.11;56.65;101072.75;5069469;28;20405;-82
2022/06/18 00:47:16;;;;;;;7.00;1.52;;;;;;;13.62;56.79;101039.88;5058551;28;20053;-81
2022/06/18 00:49:54;;;;;;;;;;;;;;;14.34;55.82;101067.25;5089461;28;20105;-81
2022/06/18 00:52:29;;;;;;;6.93;1.40;;;;;;;13.99;55.64;101029.44;5053125;28;19921;-81
2022/06/18 00:55:03;;;;;;;7.78;1.67;;;;;;;14.19;56.88;101075.88;5041947;28;20063;-81
2022/06/18 00:57:46;;;;;;;5.82;1.30;;;;;;;13.78;57.00;101033.91;5049392;28;20055;-81
2022/06/18 01:00:19;;;;;;;13.20;1.85;;;;;;;13.57;57.01;101068.16;5046856;28;20053;-81
2022/06/18 01:02:48;;;;;;;9.43;1.80;;;;;;;13.52;57.87;101085.06;5059294;28;20048;-82
2022/06/18 01:05:32;;;;;;;9.38;1.88;;;;;;;13.62;58.23;101081.13;5055666;28;20052;-81
2022/06/18 01:08:02;;;;;;;7.40;1.70;;;;;;;13.72;58.15;101090.28;5062577;28;20049;-82
2022/06/18 01:10:41;;;;;;;9.45;1.58;;;;;;;13.56;58.76;101065.59;5063772;28;20498;-82
2022/06/18 01:13:13;;;;;;;7.88;1.67;;;;;;;13.54;59.15;101068.28;5051171;28;20505;-81
2022/06/18 01:15:43;;;;;;;4.95;1.45;;;;;;;13.53;58.47;100999.97;5058907;28;20150;-81
2022/06/18 01:18:12;;;;;;;10.55;1.65;;;;;;;13.21;59.61;101004.84;5043371;28;20084;-81
2022/06/18 01:20:48;;;;;;;9.05;2.53;;;;;;;13.52;60.52;101053.50;5056327;28;20055;-81
2022/06/18 01:23:33;;;;;;;8.55;1.33;;;;;;;13.65;60.66;101059.91;5049406;28;20051;-81
2022/06/18 01:26:00;;;;;;;8.85;1.67;;;;;;;13.05;62.18;100992.41;5053237;28;20128;-81
2022/06/18 01:28:27;;;;;;;6.35;1.60;;;;;;;13.46;62.04;101049.38;5054142;28;20482;-81
2022/06/18 01:30:54;;;;;;;12.63;2.97;;;;;;;12.95;63.54;101033.16;5052275;28;20070;-83
2022/06/18 01:33:21;;;;;;;8.68;1.50;;;;;;;12.86;66.24;101051.94;5051801;28;20127;-81
2022/06/18 01:35:51;;;;;;;8.13;1.70;;;;;;;13.23;65.75;101059.09;5052915;28;20048;-82
2022/06/18 01:38:18;;;;;;;12.38;2.13;;;;;;;12.82;68.61;101058.22;5048961;28;20053;-82
2022/06/18 01:40:45;;;;;;;8.65;1.60;;;;;;;13.13;68.23;101057.78;5060087;28;20080;-82
2022/06/18 01:43:16;;;;;;;16.55;1.80;;;;;;;12.61;69.46;101031.09;5052978;28;20057;-82
2022/06/18 01:45:47;;;;;;;13.25;2.58;;;;;;;12.13;76.29;101040.88;5048455;28;20052;-82
2022/06/18 01:48:26;;;;;;;12.23;2.78;;;;;;;12.51;75.90;101031.47;5051323;28;20056;-82
2022/06/18 01:51:02;;;;;;;12.43;2.58;;;;;;;12.41;79.03;101048.53;5055070;28;20053;-82
2022/06/18 01:53:35;;;;;;;11.40;2.33;;;;;;;12.40;79.67;101054.69;5064758;28;20049;-82
2022/06/18 01:56:12;;;;;;;6.88;1.65;;;;;;;12.66;78.21;101013.34;5057083;28;20061;-82
2022/06/18 01:58:47;;;;;;;9.02;1.90;;;;;;;12.47;80.90;101055.28;5054818;28;20056;-82
2022/06/18 02:01:21;;;;;;;9.25;1.65;;;;;;;12.76;79.19;101017.31;5042532;28;20071;-82
2022/06/18 02:03:47;;;;;;;8.18;1.60;;;;;;;12.68;78.32;100999.25;5051284;28;20682;-82
2022/06/18 02:06:14;;;;;;;14.88;2.03;;;;;;;12.54;80.93;100991.09;5043831;28;20119;-82
2022/06/18 02:08:41;;;;;;;10.82;2.47;;;;;;;12.36;81.37;100992.72;5049313;28;20312;-82
2022/06/18 02:11:12;;;;;;;10.77;1.67;;;;;;;12.80;82.42;101033.78;5051935;28;20049;-82
2022/06/18 02:13:49;;;;;;;15.27;2.67;;;;;;;12.44;85.10;101014.25;5061419;28;20051;-82
2022/06/18 02:16:21;;;;;;;9.52;1.85;;;;;;;12.83;84.03;101041.56;5051759;28;20660;-82
2022/06/18 02:18:49;;;;;;;8.27;1.93;;;;;;;12.56;84.84;100983.16;5051704;28;20135;-82
2022/06/18 02:21:21;;;;;;;5.47;1.40;;;;;;;12.98;83.43;100996.22;5046123;28;20294;-81
2022/06/18 02:23:53;;;;;;;7.82;1.80;;;;;;;12.91;82.91;100987.75;5050781;28;20466;-82
2022/06/18 02:26:22;;;;;;;7.55;1.80;;;;;;;13.09;83.83;101037.81;5051793;28;20059;-82
2022/06/18 02:28:53;;;;;;;6.95;1.60;;;;;;;12.54;84.90;100976.19;5052150;28;20041;-82
2022/06/18 02:31:25;;;;;;;9.00;1.58;;;;;;;12.83;85.35;101021.38;5046137;28;20044;-82
2022/06/18 02:33:56;;;;;;;13.00;2.08;;;;;;;12.56;87.32;100988.41;5051067;28;20140;-82
2022/06/18 02:36:35;;;;;;;11.40;2.13;;;;;;;13.05;87.29;101034.47;5062724;28;20076;-82
2022/06/18 02:39:33;;;;;;;8.88;1.92;;;;;;;13.04;88.69;101040.63;5051228;28;20055;-82
2022/06/18 02:42:14;;;;;;;6.85;1.85;;;;;;;12.71;90.00;101049.03;5042560;28;20053;-81
2022/06/18 02:44:44;;;;;;;9.85;1.80;;;;;;;12.74;91.69;101029.66;5047101;28;20084;-82
2022/06/18 02:47:12;;;;;;;15.52;2.28;;;;;;;12.81;90.04;101032.88;5051108;28;20041;-82
2022/06/18 02:49:48;;;;;;;8.30;1.80;;;;;;;13.09;91.33;101041.28;5047452;28;20053;-81
2022/06/18 02:52:15;;;;;;;8.98;1.50;;;;;;;13.15;90.52;101041.94;5042306;28;20045;-81
2022/06/18 02:54:42;;;;;;;9.88;2.20;;;;;;;12.81;91.05;101043.41;5051870;28;20414;-82
2022/06/18 02:57:23;;;;;;;11.40;2.17;;;;;;;12.68;94.72;101045.69;5037653;28;20049;-82
2022/06/18 02:59:50;;;;;;;11.82;2.30;;;;;;;12.72;93.50;101026.25;5061885;28;20052;-82
2022/06/18 03:02:17;;;;;;;10.98;1.80;;;;;;;12.69;94.08;101018.47;5040595;28;20045;-82
2022/06/18 03:04:44;;;;;;;14.23;2.67;;;;;;;12.52;93.96;101021.81;5038691;28;20471;-82
2022/06/18 03:07:11;;;;;;;8.23;1.77;;;;;;;12.37;92.47;100965.53;5049964;28;20067;-81
2022/06/18 03:12:06;;;;;;;10.48;2.70;;;;;;;12.82;89.94;101038.06;5050588;28;20055;-81
2022/06/18 03:12:25;;;;;;;10.93;1.90;;;;;;;12.63;93.67;101026.63;5047421;28;20042;-81
2022/06/18 03:14:51;;;;;;;8.40;1.95;;;;;;;12.05;99.57;101008.84;5059486;28;20607;-81
2022/06/18 03:17:18;;;;;;;16.83;3.17;;;;;;;12.24;100.00;101048.34;5051931;28;20041;-82
2022/06/18 03:19:52;;;;;;;14.52;2.85;;;;;;;12.15;100.00;101034.66;5051946;28;20087;-82
2022/06/18 03:22:20;;;;;;;9.30;2.63;;;;;;;12.33;100.00;101043.56;5049532;28;20049;-81
2022/06/18 03:24:47;;;;;;;16.60;2.83;;;;;;;12.44;100.00;101032.63;5041329;28;20627;-81
2022/06/18 03:27:15;;;;;;;12.07;2.50;;;;;;;12.76;96.00;101045.34;5047182;28;20502;-82
2022/06/18 03:29:44;;;;;;;8.88;2.35;;;;;;;12.35;100.00;101023.34;5049203;28;20525;-82
2022/06/18 03:32:10;;;;;;;9.70;1.98;;;;;;;12.42;96.92;101012.59;5046950;28;20061;-82
2022/06/18 03:34:38;;;;;;;15.85;2.80;;;;;;;12.47;97.98;101058.78;5050166;28;20080;-82
2022/06/18 03:37:05;;;;;;;10.85;1.88;;;;;;;12.49;97.33;101048.22;5055891;28;20051;-82
2022/06/18 03:39:32;;;;;;;10.38;2.22;;;;;;;12.52;97.92;101017.41;5069511;28;20425;-82
2022/06/18 03:41:59;;;;;;;10.27;1.73;;;;;;;12.81;99.14;101051.28;5055113;28;20407;-82
2022/06/18 03:44:26;;;;;;;6.68;1.73;;;;;;;12.52;100.00;101032.34;5055742;28;20052;-81
2022/06/18 03:46:54;;;;;;;12.02;2.08;;;;;;;12.76;98.05;101047.97;5065621;28;20653;-82
2022/06/18 03:49:27;;;;;;;13.73;2.63;;;;;;;12.03;100.00;101057.91;5042166;28;20406;-83
2022/06/18 03:51:56;;;;;;;9.35;2.08;;;;;;;12.41;100.00;101048.53;5045410;28;20055;-82
2022/06/18 03:54:24;;;;;;;8.25;2.33;;;;;;;12.81;96.80;101059.16;5044366;28;20055;-82
2022/06/18 03:56:51;;;;;;;10.35;1.95;;;;;;;12.48;100.00;101065.75;5050254;28;20059;-82
2022/06/18 03:59:19;;;;;;;15.60;3.05;;;;;;;12.32;100.00;101059.38;5048879;28;20041;-83
2022/06/18 04:01:46;;;;;;;9.50;2.20;;;;;;;12.70;99.02;101057.84;5051673;28;20042;-83
2022/06/18 04:04:14;;;;;;;9.55;2.13;;;;;;;12.78;97.12;101044.34;5057883;28;20080;-83
2022/06/18 04:06:42;;;;;;;8.38;2.00;;;;;;;12.67;96.15;101031.69;5061830;28;20124;-83
2022/06/18 04:09:10;;;;;;;18.83;2.53;;;;;;;12.43;97.37;101003.78;5043784;28;20049;-83
2022/06/18 04:11:37;;;;;;;10.98;3.00;;;;;;;12.41;100.00;101034.53;5049337;28;20053;-83
2022/06/18 04:14:04;;;;;;;10.02;2.35;;;;;;;13.33;96.91;101021.91;5041233;28;20053;-83
2022/06/18 04:16:32;;;;;;;13.80;2.17;;;;;;;14.46;85.75;101046.50;5043903;28;20053;-83
2022/06/18 04:18:58;;;;;;;11.20;2.30;;;;;;;14.35;82.70;100987.28;5046104;28;20441;-83
2022/06/18 04:21:25;;;;;;;10.57;1.92;;;;;;;15.10;79.01;101019.56;5065551;28;20052;-84
2022/06/18 04:23:52;;;;;;;11.32;2.30;;;;;;;15.50;74.99;101025.38;5054184;28;20061;-83
2022/06/18 04:26:19;;;;;;;9.88;2.25;;;;;;;15.84;71.51;101018.28;5054206;28;20075;-84
2022/06/18 04:28:47;;;;;;;10.93;2.47;;;;;;;15.82;69.51;101001.66;5045236;28;20091;-84
2022/06/18 04:31:14;;;;;;;11.63;1.90;;;;;;;16.57;67.56;101030.88;5060630;28;20052;-84
2022/06/18 04:33:42;;;;;;;10.63;1.85;;;;;;;16.60;66.83;101028.06;5045232;28;20541;-83
2022/06/18 04:36:29;;;;;;;9.68;2.00;;;;;;;16.37;65.20;101010.91;5045798;28;20869;-82
2022/06/18 04:38:57;;;;;;;11.00;2.17;;;;;;;16.65;64.18;101007.50;5044859;28;20111;-83
2022/06/18 04:41:24;;;;;;;10.55;1.80;;;;;;;17.12;65.50;100980.97;5042665;28;20396;-81
2022/06/18 04:43:51;;;;;;;8.18;2.22;;;;;;;16.91;62.61;101015.75;5047713;28;20468;-81
2022/06/18 04:46:18;;;;;;;9.57;1.73;;;;;;;16.84;64.12;101019.69;5038418;28;20157;-81
2022/06/18 04:48:45;;;;;;;11.98;2.35;;;;;;;17.56;62.42;101022.38;5044476;28;20048;-82
2022/06/18 04:51:12;;;;;;;13.90;2.67;;;;;;;16.75;62.88;101018.41;5039965;28;20044;-82
2022/06/18 04:53:38;;;;;;;11.02;2.70;;;;;;;16.41;64.04;101030.09;5046521;28;20049;-82
2022/06/18 04:56:06;;;;;;;9.77;1.70;;;;;;;17.02;63.88;101041.56;5044062;28;20045;-81
2022/06/18 04:58:33;;;;;;;13.02;2.42;;;;;;;15.83;65.45;101028.91;5050419;28;20041;-81
2022/06/18 05:01:01;;;;;;;15.55;2.50;;;;;;;14.98;68.40;101042.16;5044837;28;20048;-82
2022/06/18 05:03:28;;;;;;;14.90;2.30;;;;;;;14.05;75.82;101040.50;5062299;28;20055;-82
2022/06/18 05:05:56;;;;;;;13.18;2.92;;;;;;;13.61;82.54;101013.63;5051766;28;20457;-82
2022/06/18 05:08:23;;;;;;;15.52;2.67;;;;;;;13.50;85.37;101016.75;5052685;28;20049;-82
2022/06/18 05:10:50;;;;;;;17.10;3.25;;;;;;;12.87;89.85;100991.44;5051564;28;20037;-83
2022/06/18 05:13:16;;;;;;;12.02;2.47;;;;;;;13.58;90.21;101030.41;5051760;28;20128;-82
2022/06/18 05:15:45;;;;;;;10.55;2.22;;;;;;;14.33;82.07;101027.81;5037425;28;20056;-82
2022/06/18 05:18:14;;;;;;;9.13;1.77;;;;;;;14.69;79.04;101016.41;5062100;28;20124;-82
2022/06/18 05:20:41;;;;;;;9.52;2.20;;;;;;;15.08;77.65;100959.91;5051795;28;20762;-82
2022/06/18 05:23:11;;;;;;;15.35;2.72;;;;;;;15.84;73.87;101007.72;5068692;28;20208;-82
2022/06/18 05:25:38;;;;;;;15.27;3.10;;;;;;;15.63;72.82;101007.06;5053842;28;20059;-82
2022/06/18 05:28:05;;;;;;;12.05;1.95;;;;;;;16.26;71.04;100974.53;5051159;28;20053;-82
2022/06/18 05:30:32;;;;;;;11.13;2.25;;;;;;;17.14;66.36;100979.09;5050677;28;20067;-82
2022/06/18 05:32:58;;;;;;;10.00;2.47;;;;;;;17.52;63.91;100982.00;5044122;28;20483;-82
2022/06/18 05:35:25;;;;;;;14.15;3.05;;;;;;;17.40;61.84;100980.97;5045119;28;20048;-83
2022/06/18 05:37:52;;;;;;;9.27;2.20;;;;;;;17.40;62.54;100974.84;5053155;28;20675;-82
2022/06/18 05:40:20;;;;;;;8.57;1.85;;;;;;;18.13;60.17;100944.59;5051066;28;20063;-83
2022/06/18 05:42:47;;;;;;;9.75;1.95;;;;;;;18.25;60.19;100980.06;5067578;28;20053;-82
2022/06/18 05:45:14;;;;;;;10.05;2.35;;;;;;;18.46;58.29;100986.56;5042442;28;20056;-83
2022/06/18 05:47:41;;;;;;;9.65;1.90;;;;;;;18.82;57.42;100974.44;5046786;28;20049;-82
2022/06/18 05:50:13;;;;;;;9.02;1.83;;;;;;;19.33;57.30;100989.53;5039484;28;20045;-82
2022/06/18 05:52:41;;;;;;;8.48;2.08;;;;;;;19.19;56.32;100987.00;5046041;28;20194;-83
2022/06/18 05:55:08;;;;;;;11.82;1.90;;;;;;;18.98;56.61;100987.50;5051369;28;20755;-83
2022/06/18 05:57:44;;;;;;;7.63;1.70;;;;;;;18.19;58.13;100974.19;5052961;28;20045;-83
2022/06/18 06:00:15;;;;;;;9.48;1.83;;;;;;;18.76;58.48;100982.81;5052498;28;20431;-83
2022/06/18 06:02:41;;;;;;;7.55;1.90;;;;;;;19.23;55.18;100969.88;5045571;28;20060;-83
2022/06/18 06:05:08;;;;;;;12.75;2.63;;;;;;;18.41;56.07;100978.06;5051334;28;20047;-82
2022/06/18 06:07:35;;;;;;;10.90;2.38;;;;;;;18.69;55.91;100963.81;5052645;28;20060;-83
2022/06/18 06:12:51;;;;;;;14.43;2.58;;;;;;;18.73;56.30;100977.72;5044282;28;20064;-83
2022/06/18 06:15:17;;;;;;;9.48;2.17;;;;;;;17.94;59.87;100995.31;5050359;28;20556;-83
2022/06/18 06:17:44;;;;;;;14.50;2.38;;;;;;;18.46;57.66;100969.81;5047833;28;20052;-83
2022/06/18 06:20:18;;;;;;;14.52;2.92;;;;;;;18.38;57.99;100980.94;5048049;28;20049;-83
2022/06/18 06:22:45;;;;;;;9.82;2.40;;;;;;;17.70;60.68;100965.91;5041645;28;20055;-84
2022/06/18 06:25:12;;;;;;;10.05;2.17;;;;;;;18.91;59.54;100957.94;5049870;28;20060;-83
2022/06/18 06:27:39;;;;;;;11.90;2.08;;;;;;;18.45;60.01;100976.06;5047139;28;20045;-83
2022/06/18 06:30:06;;;;;;;11.88;2.17;;;;;;;18.44;60.70;100982.34;5049346;28;20049;-83
2022/06/18 06:32:37;;;;;;;10.90;1.80;;;;;;;19.72;57.81;100975.22;5050757;28;20077;-83
2022/06/18 06:35:04;;;;;;;10.38;1.88;;;;;;;20.17;56.26;100979.09;5050415;28;20080;-83
2022/06/18 06:37:31;;;;;;;11.43;2.15;;;;;;;20.23;54.97;100973.31;5050156;28;20053;-83
2022/06/18 06:39:58;;;;;;;10.95;2.00;;;;;;;19.91;56.28;100960.63;5049728;28;20511;-83
2022/06/18 06:42:25;;;;;;;8.00;1.85;;;;;;;21.27;51.13;100963.66;5048216;28;20053;-83
2022/06/18 06:44:51;;;;;;;10.07;2.35;;;;;;;21.34;48.00;100957.72;5050532;28;20048;-83
2022/06/18 06:47:18;;;;;;;12.05;2.10;;;;;;;20.73;46.23;100933.25;5050390;28;20052;-83
2022/06/18 06:49:46;;;;;;;10.80;2.53;;;;;;;20.71;46.59;100967.09;5044675;28;20053;-83
2022/06/18 06:52:13;;;;;;;13.55;2.00;;;;;;;21.10;46.49;100955.16;5044335;28;20135;-83
2022/06/18 06:54:40;;;;;;;9.82;1.60;;;;;;;21.18;45.51;100942.13;5045974;28;20048;-83
2022/06/18 06:57:21;;;;;;;8.60;2.15;;;;;;;21.23;45.68;100944.41;5039766;28;20048;-83
2022/06/18 06:59:49;;;;;;;10.93;2.03;;;;;;;21.28;43.32;100955.53;5057525;28;20048;-83
2022/06/18 07:02:19;;;;;;;13.27;2.00;;;;;;;21.69;44.20;100975.41;5049873;28;20053;-83
2022/06/18 07:04:46;;;;;;;8.77;1.63;;;;;;;21.93;42.03;100963.69;5048784;28;20054;-84
2022/06/18 07:07:14;;;;;;;12.10;2.00;;;;;;;21.75;42.63;100948.22;5067398;28;20049;-84
2022/06/18 07:09:42;;;;;;;7.40;1.45;;;;;;;21.92;42.80;100941.53;5050963;28;20068;-84
2022/06/18 07:12:09;;;;;;;9.35;1.75;;;;;;;22.12;42.59;100955.03;5050062;28;20049;-83
2022/06/18 07:14:36;;;;;;;12.73;2.05;;;;;;;22.61;43.05;100968.75;5054241;28;20056;-84
2022/06/18 07:17:04;;;;;;;12.07;2.58;;;;;;;21.66;46.07;100972.13;5049171;28;20061;-84
2022/06/18 07:19:31;;;;;;;10.32;2.08;;;;;;;21.63;48.23;100967.88;5049062;28;20668;-83
2022/06/18 07:21:57;;;;;;;12.40;2.15;;;;;;;22.19;45.30;100941.06;5051789;28;20053;-83
2022/06/18 07:24:24;;;;;;;10.35;1.88;;;;;;;22.92;41.07;100937.63;5054271;28;20128;-83
2022/06/18 07:26:51;;;;;;;8.25;1.77;;;;;;;22.59;39.59;100938.69;5043231;28;20041;-84
2022/06/18 07:29:20;;;;;;;6.85;1.30;;;;;;;23.09;38.91;100910.31;5052099;28;20129;-84
2022/06/18 07:31:49;;;;;;;12.43;2.13;;;;;;;22.48;37.52;100915.59;5051001;28;20048;-84
2022/06/18 07:34:16;;;;;;;10.20;1.95;;;;;;;22.03;36.89;100934.44;5053532;28;20725;-84
2022/06/18 07:36:44;;;;;;;7.97;1.50;;;;;;;22.10;37.58;100911.66;5047444;28;20045;-84
2022/06/18 07:39:10;;;;;;;5.45;1.10;;;;;;;22.31;38.29;100930.34;5049842;28;20045;-84
2022/06/18 07:41:45;;;;;;;7.32;1.60;;;;;;;22.11;37.13;100916.84;5046847;28;20042;-83
2022/06/18 07:44:12;;;;;;;6.15;1.30;;;;;;;21.86;38.59;100947.34;5047502;28;20052;-83
2022/06/18 07:46:39;;;;;;;8.95;1.20;;;;;;;21.70;37.76;100941.59;5052512;28;20099;-82
2022/06/18 07:49:08;;;;;;;4.85;1.70;;;;;;;22.05;36.65;100911.19;5047576;28;20045;-83
2022/06/18 07:51:35;;;;;;;7.07;1.23;;;;;;;21.95;36.89;100937.75;5046479;28;20074;-83
2022/06/18 07:54:02;;;;;;;7.68;1.50;;;;;;;21.71;37.60;100892.63;5050429;28;20137;-83
2022/06/18 07:56:30;;;;;;;5.70;1.23;;;;;;;22.56;37.96;100948.66;5048147;28;20505;-84
2022/06/18 07:58:58;;;;;;;6.90;1.10;;;;;;;22.77;37.30;100925.59;5045444;28;20045;-85
2022/06/18 08:01:25;;;;;;;7.20;1.00;;;;;;;22.68;36.59;100876.53;5050888;28;20541;-84
2022/06/18 08:03:51;;;;;;;9.45;1.40;;;;;;;21.42;37.04;100907.34;5046444;28;20609;-83
2022/06/18 08:06:18;;;;;;;8.75;1.30;;;;;;;21.98;35.40;100921.50;5046387;28;20107;-83
2022/06/18 08:08:45;;;;;;;7.43;1.40;;;;;;;21.60;36.23;100896.19;5049937;28;20052;-84
2022/06/18 08:11:15;;;;;;;8.45;1.88;;;;;;;22.14;35.91;100916.59;5049251;28;21476;-83
2022/06/18 08:13:42;;;;;;;6.05;1.38;;;;;;;22.08;35.60;100910.91;5046740;28;20085;-84
2022/06/18 08:16:13;;;;;;;8.48;1.48;;;;;;;22.17;37.03;100905.66;5046802;28;20055;-83
2022/06/18 08:18:41;;;;;;;6.60;1.23;;;;;;;21.93;36.78;100929.03;5045417;28;20462;-83
2022/06/18 08:21:16;;;;;;;8.57;1.40;;;;;;;21.52;37.07;100930.63;5055869;28;20047;-84
2022/06/18 08:23:44;;;;;;;8.10;1.40;;;;;;;21.90;35.27;100905.28;5046002;28;21338;-83
2022/06/18 08:26:12;;;;;;;8.25;1.15;;;;;;;21.78;36.29;100928.50;5047280;28;20067;-84
2022/06/18 08:28:40;;;;;;;8.32;1.55;;;;;;;22.25;35.53;100904.19;5047747;28;20084;-83
2022/06/18 08:31:08;;;;;;;7.10;1.30;;;;;;;21.60;36.50;100930.81;5046920;28;20037;-84
2022/06/18 08:33:35;;;;;;;8.32;1.35;;;;;;;21.46;37.10;100915.09;5053026;28;20594;-83
2022/06/18 08:36:05;;;;;;;7.78;1.80;;;;;;;21.34;37.14;100903.63;5061705;28;20056;-84
2022/06/18 08:38:33;;;;;;;9.55;1.55;;;;;;;21.51;37.08;100912.94;5045930;28;20063;-84
2022/06/18 08:41:09;;;;;;;6.55;1.10;;;;;;;22.16;36.80;100919.97;5061673;28;20053;-83
2022/06/18 08:43:51;;;;;;;8.57;1.55;;;;;;;22.14;35.80;100918.41;5046125;28;20048;-84
2022/06/18 08:46:17;;;;;;;6.40;1.45;;;;;;;22.66;35.36;100910.50;5049622;28;20916;-83
2022/06/18 08:48:48;;;;;;;6.80;1.30;;;;;;;22.50;34.95;100906.47;5041822;28;20119;-83
2022/06/18 08:51:42;;;;;;;6.97;1.13;;;;;;;22.54;34.61;100899.06;5043932;28;20471;-83
2022/06/18 08:54:08;;;;;;;;;;;;;;;22.82;34.49;100902.84;5041523;28;21028;-83
2022/06/18 08:56:48;;;;;;;7.88;1.50;;;;;;;22.88;35.67;100890.81;5048933;28;19929;-83
2022/06/18 08:59:18;;;;;;;7.93;1.25;;;;;;;22.43;35.12;100907.97;5041234;28;20498;-83
2022/06/18 09:01:52;;;;;;;10.40;1.35;;;;;;;22.16;35.22;100881.78;5046217;28;20402;-83
2022/06/18 09:04:39;;;;;;;10.73;1.58;;;;;;;22.37;35.08;100872.00;5054210;28;20664;-83
2022/06/18 09:07:18;;;;;;;6.97;1.63;;;;;;;21.95;35.73;100905.75;5042149;28;20050;-84
2022/06/18 09:10:07;;;;;;;7.40;1.42;;;;;;;22.61;34.78;100896.72;5048969;28;20475;-84
2022/06/18 09:12:50;;;;;;;10.48;1.33;;;;;;;22.27;35.39;100904.91;5044480;28;20047;-84
2022/06/18 09:15:29;;;;;;;8.68;1.70;;;;;;;22.42;35.67;100889.47;5043440;28;20055;-84
2022/06/18 09:18:21;;;;;;;6.93;1.08;;;;;;;22.84;35.39;100884.91;5040374;28;20059;-84
2022/06/18 09:20:58;;;;;;;5.75;1.30;;;;;;;22.74;35.67;100894.69;5041138;28;20047;-85
2022/06/18 09:23:38;;;;;;;6.75;1.13;;;;;;;22.66;34.71;100895.31;5045025;28;20107;-85
2022/06/18 09:26:11;;;;;;;5.55;1.20;;;;;;;21.93;36.00;100855.25;5047455;28;20059;-84
2022/06/18 09:28:45;;;;;;;6.63;1.30;;;;;;;22.30;35.47;100886.84;5060938;28;20080;-84
2022/06/18 09:31:29;;;;;;;6.43;1.30;;;;;;;23.04;35.12;100887.66;5047549;28;20475;-84
2022/06/18 09:34:08;;;;;;;5.53;1.23;;;;;;;22.21;34.79;100890.25;5044426;28;20494;-82
2022/06/18 09:36:43;;;;;;;6.15;0.90;;;;;;;22.22;36.14;100889.25;5064989;28;20049;-84
2022/06/18 09:39:22;;;;;;;3.92;1.05;;;;;;;22.71;35.79;100861.09;5052736;28;20059;-84
2022/06/18 09:42:19;;;;;;;7.57;1.60;;;;;;;22.42;35.25;100862.78;5038346;28;20075;-83
2022/06/18 09:44:57;;;;;;;6.78;1.40;;;;;;;22.65;35.14;100863.47;5066526;28;20053;-84
2022/06/18 09:47:52;;;;;;;6.13;1.23;;;;;;;22.71;34.90;100868.25;5048345;28;20483;-85
2022/06/18 09:50:32;;;;;;;6.82;1.17;;;;;;;22.23;35.55;100855.47;5046813;28;20822;-84
2022/06/18 09:53:22;;;;;;;6.85;1.27;;;;;;;22.84;36.28;100858.22;5045498;28;20049;-84
2022/06/18 09:56:01;;;;;;;5.40;1.77;;;;;;;21.78;37.32;100843.22;5041682;28;20060;-84
2022/06/18 09:58:33;;;;;;;9.38;1.50;;;;;;;22.09;36.99;100864.63;5072678;28;20139;-84
2022/06/18 10:01:01;;;;;;;5.97;1.20;;;;;;;21.63;35.06;100845.31;5059519;28;20040;-84
2022/06/18 10:09:40;;;;;;;6.30;1.45;;;;;;;22.02;34.65;100868.78;5051809;28;20049;-84
2022/06/18 10:12:32;;;;;;;8.35;1.20;;;;;;;21.90;33.69;100857.31;5039294;28;20048;-84
2022/06/18 10:15:04;;;;;;;6.80;1.48;;;;;;;21.77;34.26;100846.84;5042082;28;20411;-84
2022/06/18 10:18:08;;;;;;;7.13;1.33;;;;;;;21.93;33.73;100849.06;5052633;28;20049;-84
2022/06/18 10:20:54;;;;;;;6.72;1.48;;;;;;;22.14;35.34;100819.75;5060502;28;20037;-85
2022/06/18 10:23:47;;;;;;;8.45;1.30;;;;;;;22.20;33.89;100816.56;5046993;28;20112;-84
2022/06/18 10:26:31;;;;;;;5.53;1.02;;;;;;;22.10;34.69;100792.50;5045618;28;20430;-84
2022/06/18 10:29:17;;;;;;;6.35;1.30;;;;;;;22.63;33.45;100820.03;5057951;28;20608;-84
2022/06/18 10:32:30;;;;;;;7.57;1.23;;;;;;;22.46;33.71;100746.81;5043017;28;20102;-84
2022/06/18 10:35:16;;;;;;;7.88;1.67;;;;;;;23.01;33.96;100822.00;5044592;28;20046;-85
2022/06/18 10:37:46;;;;;;;6.18;1.38;;;;;;;23.27;33.26;100806.34;5040835;28;20047;-84
2022/06/18 10:40:37;;;;;;;7.35;1.20;;;;;;;22.58;33.82;100807.09;5047065;28;20372;-84
2022/06/18 10:43:34;;;;;;;5.45;0.90;;;;;;;23.33;33.00;100801.44;5046019;28;20055;-84
2022/06/18 10:46:08;;;;;;;7.05;1.20;;;;;;;22.15;33.77;100787.63;5043602;28;20053;-84
2022/06/18 10:48:36;;;;;;;8.43;1.33;;;;;;;21.80;35.06;100801.28;5058749;28;20415;-84
2022/06/18 10:51:03;;;;;;;7.47;1.50;;;;;;;22.78;34.80;100808.03;5042067;28;20045;-84
2022/06/18 10:53:35;;;;;;;5.50;1.00;;;;;;;23.39;33.74;100806.22;5047498;28;20053;-84
2022/06/18 10:56:13;;;;;;;4.80;1.10;;;;;;;23.52;33.84;100750.69;5038723;28;20053;-84
2022/06/18 10:58:48;;;;;;;6.05;1.30;;;;;;;22.42;34.98;100804.09;5052056;28;20124;-84
2022/06/18 11:01:20;;;;;;;6.65;1.42;;;;;;;23.82;33.64;100815.69;5042524;28;20049;-84
2022/06/18 11:03:59;;;;;;;7.10;1.00;;;;;;;23.67;32.76;100788.50;5044334;28;20071;-84
2022/06/18 11:06:27;;;;;;;5.43;1.00;;;;;;;24.11;32.45;100791.56;5047986;28;20046;-85
2022/06/18 11:08:58;;;;;;;9.73;1.33;;;;;;;23.96;31.94;100790.34;5043684;28;20471;-87
2022/06/18 11:11:28;;;;;;;9.05;1.40;;;;;;;23.72;32.56;100812.97;5048078;28;20132;-87
2022/06/18 11:13:55;;;;;;;6.47;1.30;;;;;;;23.78;33.08;100787.50;5051801;28;20053;-87
2022/06/18 11:16:24;;;;;;;6.00;1.30;;;;;;;23.21;31.27;100830.91;5051840;28;20051;-86
2022/06/18 11:18:58;;;;;;;6.78;1.20;;;;;;;23.50;32.33;100830.13;5048705;28;20095;-86
2022/06/18 11:21:39;;;;;;;6.50;1.08;;;;;;;24.05;32.24;100819.72;5046583;28;20047;-85
2022/06/18 11:24:13;;;;;;;10.70;1.25;;;;;;;23.22;32.61;100827.28;5044183;28;20132;-83
2022/06/18 11:26:50;;;;;;;7.65;1.30;;;;;;;23.05;33.79;100796.72;5042836;28;20466;-84
2022/06/18 11:29:35;;;;;;;5.60;1.10;;;;;;;23.17;33.11;100818.84;5035062;28;20050;-85
2022/06/18 11:32:10;;;;;;;5.90;1.20;;;;;;;23.38;33.45;100826.75;5042084;28;20798;-86
2022/06/18 11:34:44;;;;;;;6.32;1.50;;;;;;;22.12;33.98;100827.88;5049187;28;20056;-86
2022/06/18 11:37:26;;;;;;;4.35;0.93;;;;;;;22.90;32.54;100830.13;5047406;28;20391;-86
2022/06/18 11:40:04;;;;;;;7.55;0.98;;;;;;;22.74;33.22;100822.63;5039941;28;20131;-85
2022/06/18 11:42:37;;;;;;;7.45;1.20;;;;;;;22.12;34.44;100833.22;5044135;28;20045;-86
2022/06/18 11:45:49;;;;;;;3.42;0.90;;;;;;;23.24;34.15;100846.69;5043743;28;20045;-86
2022/06/18 11:48:46;;;;;;;5.72;1.15;;;;;;;23.50;33.08;100833.66;5033884;28;20064;-85
2022/06/18 11:51:30;;;;;;;4.53;0.90;;;;;;;22.44;34.30;100829.66;5041178;28;20053;-86
2022/06/18 11:54:22;;;;;;;5.80;0.77;;;;;;;22.36;35.16;100826.78;5058289;28;20077;-85
2022/06/18 11:57:16;;;;;;;6.18;1.20;;;;;;;22.74;36.22;100822.63;5042224;28;20148;-84